sensor_id;sensor_type;location;lat;lon;timestamp;pressure;altitude;pressure_sealevel;temperature;humidity
72096;BME280;59968;51.084;16.748;2023-04-29T00:00:16;99821.58;;;13.28;59.41
72096;BME280;59968;51.084;16.748;2023-04-29T00:03:05;99819.71;;;13.27;59.42
72096;BME280;59968;51.084;16.748;2023-04-29T00:05:36;99820.30;;;13.29;59.43
72096;BME280;59968;51.084;16.748;2023-04-29T00:08:08;99817.57;;;13.29;59.62
72096;BME280;59968;51.084;16.748;2023-04-29T00:10:40;99816.70;;;13.28;59.49
72096;BME280;59968;51.084;16.748;2023-04-29T00:13:08;99816.51;;;13.27;59.55
72096;BME280;59968;51.084;16.748;2023-04-29T00:15:37;99811.16;;;13.24;59.54
72096;BME280;59968;51.084;16.748;2023-04-29T00:18:11;99812.52;;;13.25;59.60
72096;BME280;59968;51.084;16.748;2023-04-29T00:20:44;99810.80;;;13.24;59.67
72096;BME280;59968;51.084;16.748;2023-04-29T00:23:12;99809.39;;;13.26;59.65
72096;BME280;59968;51.084;16.748;2023-04-29T00:25:46;99806.80;;;13.24;59.53
72096;BME280;59968;51.084;16.748;2023-04-29T00:28:15;99806.35;;;13.25;59.32
72096;BME280;59968;51.084;16.748;2023-04-29T00:30:44;99802.42;;;13.22;59.38
72096;BME280;59968;51.084;16.748;2023-04-29T00:33:13;99802.16;;;13.20;59.50
72096;BME280;59968;51.084;16.748;2023-04-29T00:35:41;99801.92;;;13.21;59.59
72096;BME280;59968;51.084;16.748;2023-04-29T00:38:10;99803.38;;;13.19;59.70
72096;BME280;59968;51.084;16.748;2023-04-29T00:40:42;99803.55;;;13.18;59.72
72096;BME280;59968;51.084;16.748;2023-04-29T00:43:11;99798.65;;;13.16;59.79
72096;BME280;59968;51.084;16.748;2023-04-29T00:45:40;99794.22;;;13.18;59.48
72096;BME280;59968;51.084;16.748;2023-04-29T00:48:09;99793.88;;;13.20;59.26
72096;BME280;59968;51.084;16.748;2023-04-29T00:50:38;99790.08;;;13.22;59.32
72096;BME280;59968;51.084;16.748;2023-04-29T00:53:08;99791.87;;;13.23;59.52
72096;BME280;59968;51.084;16.748;2023-04-29T00:55:37;99792.77;;;13.25;59.61
72096;BME280;59968;51.084;16.748;2023-04-29T00:58:07;99794.55;;;13.24;59.72
72096;BME280;59968;51.084;16.748;2023-04-29T01:00:42;99792.45;;;13.21;59.87
72096;BME280;59968;51.084;16.748;2023-04-29T01:03:17;99790.61;;;13.19;59.71
72096;BME280;59968;51.084;16.748;2023-04-29T01:05:52;99793.01;;;13.15;59.75
72096;BME280;59968;51.084;16.748;2023-04-29T01:08:43;99791.33;;;13.15;59.84
72096;BME280;59968;51.084;16.748;2023-04-29T01:11:15;99787.46;;;13.13;59.69
72096;BME280;59968;51.084;16.748;2023-04-29T01:13:50;99785.43;;;13.11;59.78
72096;BME280;59968;51.084;16.748;2023-04-29T01:19:54;99789.42;;;13.09;59.77
72096;BME280;59968;51.084;16.748;2023-04-29T01:22:24;99793.34;;;13.07;59.94
72096;BME280;59968;51.084;16.748;2023-04-29T01:24:53;99790.05;;;13.06;59.97
72096;BME280;59968;51.084;16.748;2023-04-29T01:30:19;99788.32;;;12.98;60.12
72096;BME280;59968;51.084;16.748;2023-04-29T01:35:55;99784.98;;;12.95;60.11
72096;BME280;59968;51.084;16.748;2023-04-29T01:39:06;99791.05;;;12.92;60.26
72096;BME280;59968;51.084;16.748;2023-04-29T01:41:42;99793.84;;;12.91;60.38
72096;BME280;59968;51.084;16.748;2023-04-29T01:44:23;99791.34;;;12.88;60.60
72096;BME280;59968;51.084;16.748;2023-04-29T01:46:53;99787.39;;;12.87;60.66
72096;BME280;59968;51.084;16.748;2023-04-29T01:49:27;99786.36;;;12.86;60.93
72096;BME280;59968;51.084;16.748;2023-04-29T01:54:39;99783.61;;;12.85;61.66
72096;BME280;59968;51.084;16.748;2023-04-29T01:57:08;99781.89;;;12.85;61.82
72096;BME280;59968;51.084;16.748;2023-04-29T02:00:19;99785.77;;;12.82;62.23
72096;BME280;59968;51.084;16.748;2023-04-29T02:02:53;99785.02;;;12.80;62.46
72096;BME280;59968;51.084;16.748;2023-04-29T02:05:29;99781.59;;;12.78;62.85
72096;BME280;59968;51.084;16.748;2023-04-29T02:08:04;99784.86;;;12.80;62.54
72096;BME280;59968;51.084;16.748;2023-04-29T02:10:39;99785.85;;;12.81;62.55
72096;BME280;59968;51.084;16.748;2023-04-29T02:13:17;99784.10;;;12.84;62.56
72096;BME280;59968;51.084;16.748;2023-04-29T02:15:46;99781.73;;;12.85;62.61
72096;BME280;59968;51.084;16.748;2023-04-29T02:18:15;99785.73;;;12.86;62.48
72096;BME280;59968;51.084;16.748;2023-04-29T02:20:48;99782.54;;;12.87;62.86
72096;BME280;59968;51.084;16.748;2023-04-29T02:23:29;99777.36;;;12.88;62.41
72096;BME280;59968;51.084;16.748;2023-04-29T02:26:01;99777.24;;;12.89;62.63
72096;BME280;59968;51.084;16.748;2023-04-29T02:28:32;99772.79;;;12.89;62.63
72096;BME280;59968;51.084;16.748;2023-04-29T02:31:07;99774.12;;;12.89;62.65
72096;BME280;59968;51.084;16.748;2023-04-29T02:33:37;99771.60;;;12.89;62.84
72096;BME280;59968;51.084;16.748;2023-04-29T02:36:17;99769.20;;;12.88;62.80
72096;BME280;59968;51.084;16.748;2023-04-29T02:38:45;99768.83;;;12.86;62.37
72096;BME280;59968;51.084;16.748;2023-04-29T02:41:20;99771.20;;;12.88;62.08
72096;BME280;59968;51.084;16.748;2023-04-29T02:43:52;99770.88;;;12.88;62.06
72096;BME280;59968;51.084;16.748;2023-04-29T02:46:21;99771.13;;;12.87;61.97
72096;BME280;59968;51.084;16.748;2023-04-29T02:48:50;99775.00;;;12.88;61.95
72096;BME280;59968;51.084;16.748;2023-04-29T02:51:24;99764.55;;;12.85;61.80
72096;BME280;59968;51.084;16.748;2023-04-29T02:53:53;99764.02;;;12.86;61.82
72096;BME280;59968;51.084;16.748;2023-04-29T02:56:24;99761.35;;;12.85;61.73
72096;BME280;59968;51.084;16.748;2023-04-29T02:58:53;99762.11;;;12.83;61.93
72096;BME280;59968;51.084;16.748;2023-04-29T03:01:22;99764.31;;;12.84;62.03
72096;BME280;59968;51.084;16.748;2023-04-29T03:03:51;99759.13;;;12.83;61.90
72096;BME280;59968;51.084;16.748;2023-04-29T03:06:21;99757.98;;;12.81;61.94
72096;BME280;59968;51.084;16.748;2023-04-29T03:08:51;99758.38;;;12.79;62.12
72096;BME280;59968;51.084;16.748;2023-04-29T03:11:20;99749.52;;;12.78;62.13
72096;BME280;59968;51.084;16.748;2023-04-29T03:13:51;99743.88;;;12.75;62.19
72096;BME280;59968;51.084;16.748;2023-04-29T03:16:21;99742.59;;;12.74;62.21
72096;BME280;59968;51.084;16.748;2023-04-29T03:18:50;99743.52;;;12.74;62.47
72096;BME280;59968;51.084;16.748;2023-04-29T03:21:19;99738.06;;;12.72;62.72
72096;BME280;59968;51.084;16.748;2023-04-29T03:23:48;99736.92;;;12.71;62.67
72096;BME280;59968;51.084;16.748;2023-04-29T03:26:21;99738.05;;;12.69;62.80
72096;BME280;59968;51.084;16.748;2023-04-29T03:28:51;99733.95;;;12.67;63.02
72096;BME280;59968;51.084;16.748;2023-04-29T03:31:22;99727.34;;;12.64;63.07
72096;BME280;59968;51.084;16.748;2023-04-29T03:33:51;99728.50;;;12.63;63.19
72096;BME280;59968;51.084;16.748;2023-04-29T03:36:21;99733.05;;;12.60;63.18
72096;BME280;59968;51.084;16.748;2023-04-29T03:39:00;99738.80;;;12.59;63.26
72096;BME280;59968;51.084;16.748;2023-04-29T03:41:31;99746.11;;;12.57;63.30
72096;BME280;59968;51.084;16.748;2023-04-29T03:43:59;99748.98;;;12.56;63.41
72096;BME280;59968;51.084;16.748;2023-04-29T03:46:29;99746.42;;;12.53;63.58
72096;BME280;59968;51.084;16.748;2023-04-29T03:49:01;99746.52;;;12.50;63.63
72096;BME280;59968;51.084;16.748;2023-04-29T03:51:30;99752.47;;;12.43;63.59
72096;BME280;59968;51.084;16.748;2023-04-29T03:54:11;99757.46;;;12.40;63.55
72096;BME280;59968;51.084;16.748;2023-04-29T03:56:40;99756.40;;;12.37;63.69
72096;BME280;59968;51.084;16.748;2023-04-29T03:59:12;99756.21;;;12.38;63.66
72096;BME280;59968;51.084;16.748;2023-04-29T04:01:41;99760.25;;;12.37;63.57
72096;BME280;59968;51.084;16.748;2023-04-29T04:04:10;99758.48;;;12.37;63.71
72096;BME280;59968;51.084;16.748;2023-04-29T04:06:44;99755.84;;;12.38;63.92
72096;BME280;59968;51.084;16.748;2023-04-29T04:09:19;99761.63;;;12.34;64.06
72096;BME280;59968;51.084;16.748;2023-04-29T04:11:59;99761.95;;;12.33;64.18
72096;BME280;59968;51.084;16.748;2023-04-29T04:14:29;99759.11;;;12.33;64.25
72096;BME280;59968;51.084;16.748;2023-04-29T04:17:01;99759.09;;;12.37;64.29
72096;BME280;59968;51.084;16.748;2023-04-29T04:19:30;99755.95;;;12.44;64.21
72096;BME280;59968;51.084;16.748;2023-04-29T04:22:02;99752.63;;;12.53;64.17
72096;BME280;59968;51.084;16.748;2023-04-29T04:24:34;99748.61;;;12.58;64.01
72096;BME280;59968;51.084;16.748;2023-04-29T04:27:04;99746.05;;;12.61;63.88
72096;BME280;59968;51.084;16.748;2023-04-29T04:29:37;99733.71;;;12.63;63.92
72096;BME280;59968;51.084;16.748;2023-04-29T04:32:21;99732.67;;;12.62;64.06
72096;BME280;59968;51.084;16.748;2023-04-29T04:34:51;99745.73;;;12.59;64.26
72096;BME280;59968;51.084;16.748;2023-04-29T04:37:20;99747.48;;;12.55;64.49
72096;BME280;59968;51.084;16.748;2023-04-29T04:39:52;99746.39;;;12.53;64.74
72096;BME280;59968;51.084;16.748;2023-04-29T04:42:22;99742.02;;;12.52;64.80
72096;BME280;59968;51.084;16.748;2023-04-29T04:44:52;99742.98;;;12.52;64.86
72096;BME280;59968;51.084;16.748;2023-04-29T04:47:39;99748.13;;;12.54;64.83
72096;BME280;59968;51.084;16.748;2023-04-29T04:50:29;99749.82;;;12.53;65.10
72096;BME280;59968;51.084;16.748;2023-04-29T04:52:58;99747.23;;;12.55;65.12
72096;BME280;59968;51.084;16.748;2023-04-29T04:55:52;99743.83;;;12.60;65.12
72096;BME280;59968;51.084;16.748;2023-04-29T04:58:24;99741.86;;;12.64;65.33
72096;BME280;59968;51.084;16.748;2023-04-29T05:01:01;99735.89;;;12.69;65.19
72096;BME280;59968;51.084;16.748;2023-04-29T05:03:29;99735.76;;;12.75;65.14
72096;BME280;59968;51.084;16.748;2023-04-29T05:05:59;99733.96;;;12.82;65.00
72096;BME280;59968;51.084;16.748;2023-04-29T05:08:28;99741.30;;;12.88;65.03
72096;BME280;59968;51.084;16.748;2023-04-29T05:11:03;99737.14;;;12.94;65.05
72096;BME280;59968;51.084;16.748;2023-04-29T05:13:32;99736.14;;;13.01;64.89
72096;BME280;59968;51.084;16.748;2023-04-29T05:16:02;99733.80;;;13.08;64.72
72096;BME280;59968;51.084;16.748;2023-04-29T05:18:33;99734.58;;;13.17;64.46
72096;BME280;59968;51.084;16.748;2023-04-29T05:21:02;99735.56;;;13.25;64.35
72096;BME280;59968;51.084;16.748;2023-04-29T05:23:33;99734.03;;;13.35;64.45
72096;BME280;59968;51.084;16.748;2023-04-29T05:26:03;99737.22;;;13.45;64.22
72096;BME280;59968;51.084;16.748;2023-04-29T05:28:35;99741.98;;;13.57;64.21
72096;BME280;59968;51.084;16.748;2023-04-29T05:31:05;99744.07;;;13.69;64.13
72096;BME280;59968;51.084;16.748;2023-04-29T05:33:34;99747.84;;;13.80;63.80
72096;BME280;59968;51.084;16.748;2023-04-29T05:36:02;99748.02;;;13.91;63.62
72096;BME280;59968;51.084;16.748;2023-04-29T05:38:32;99751.65;;;14.01;63.57
72096;BME280;59968;51.084;16.748;2023-04-29T05:41:08;99748.60;;;14.11;63.17
72096;BME280;59968;51.084;16.748;2023-04-29T05:43:37;99753.95;;;14.21;63.24
72096;BME280;59968;51.084;16.748;2023-04-29T05:46:08;99753.92;;;14.26;63.25
72096;BME280;59968;51.084;16.748;2023-04-29T05:48:41;99753.30;;;14.32;62.97
72096;BME280;59968;51.084;16.748;2023-04-29T05:51:12;99754.41;;;14.38;62.50
72096;BME280;59968;51.084;16.748;2023-04-29T05:53:41;99756.52;;;14.44;62.42
72096;BME280;59968;51.084;16.748;2023-04-29T05:56:10;99760.43;;;14.47;62.57
72096;BME280;59968;51.084;16.748;2023-04-29T05:58:39;99761.98;;;14.49;62.75
72096;BME280;59968;51.084;16.748;2023-04-29T06:01:07;99770.17;;;14.51;62.83
72096;BME280;59968;51.084;16.748;2023-04-29T06:03:36;99775.79;;;14.52;63.12
72096;BME280;59968;51.084;16.748;2023-04-29T06:06:28;99781.11;;;14.45;63.43
72096;BME280;59968;51.084;16.748;2023-04-29T06:09:10;99772.45;;;14.38;63.58
72096;BME280;59968;51.084;16.748;2023-04-29T06:11:55;99774.59;;;14.34;64.13
72096;BME280;59968;51.084;16.748;2023-04-29T06:14:32;99786.42;;;14.30;65.12
72096;BME280;59968;51.084;16.748;2023-04-29T06:17:03;99788.67;;;14.24;66.03
72096;BME280;59968;51.084;16.748;2023-04-29T06:19:32;99792.19;;;14.21;66.53
72096;BME280;59968;51.084;16.748;2023-04-29T06:22:01;99789.80;;;14.19;66.95
72096;BME280;59968;51.084;16.748;2023-04-29T06:24:33;99790.64;;;14.19;67.30
72096;BME280;59968;51.084;16.748;2023-04-29T06:27:02;99793.70;;;14.16;67.54
72096;BME280;59968;51.084;16.748;2023-04-29T06:29:31;99795.25;;;14.12;67.62
72096;BME280;59968;51.084;16.748;2023-04-29T06:32:00;99791.93;;;14.06;68.10
72096;BME280;59968;51.084;16.748;2023-04-29T06:34:30;99791.98;;;14.00;68.17
72096;BME280;59968;51.084;16.748;2023-04-29T06:37:37;99791.66;;;13.91;68.58
72096;BME280;59968;51.084;16.748;2023-04-29T06:40:36;99795.98;;;13.84;69.21
72096;BME280;59968;51.084;16.748;2023-04-29T06:43:19;99798.77;;;13.82;69.63
72096;BME280;59968;51.084;16.748;2023-04-29T06:46:06;99801.60;;;13.78;69.98
72096;BME280;59968;51.084;16.748;2023-04-29T06:48:43;99802.70;;;13.77;70.17
72096;BME280;59968;51.084;16.748;2023-04-29T06:51:14;99802.23;;;13.76;70.50
72096;BME280;59968;51.084;16.748;2023-04-29T06:53:43;99800.14;;;13.76;70.80
72096;BME280;59968;51.084;16.748;2023-04-29T06:56:12;99795.35;;;13.75;71.07
72096;BME280;59968;51.084;16.748;2023-04-29T06:58:44;99793.21;;;13.75;71.31
72096;BME280;59968;51.084;16.748;2023-04-29T07:01:13;99793.36;;;13.76;71.64
72096;BME280;59968;51.084;16.748;2023-04-29T07:03:43;99790.84;;;13.79;71.82
72096;BME280;59968;51.084;16.748;2023-04-29T07:06:12;99793.42;;;13.81;72.01
72096;BME280;59968;51.084;16.748;2023-04-29T07:08:41;99792.73;;;13.82;72.24
72096;BME280;59968;51.084;16.748;2023-04-29T07:11:10;99788.98;;;13.83;72.43
72096;BME280;59968;51.084;16.748;2023-04-29T07:13:41;99790.17;;;13.82;72.60
72096;BME280;59968;51.084;16.748;2023-04-29T07:16:18;99787.17;;;13.81;72.94
72096;BME280;59968;51.084;16.748;2023-04-29T07:18:50;99786.91;;;13.79;73.02
72096;BME280;59968;51.084;16.748;2023-04-29T07:21:19;99789.17;;;13.80;73.22
72096;BME280;59968;51.084;16.748;2023-04-29T07:23:48;99790.07;;;13.82;73.57
72096;BME280;59968;51.084;16.748;2023-04-29T07:26:16;99787.70;;;13.85;73.83
72096;BME280;59968;51.084;16.748;2023-04-29T07:28:47;99790.82;;;13.91;73.72
72096;BME280;59968;51.084;16.748;2023-04-29T07:31:17;99789.95;;;13.96;74.01
72096;BME280;59968;51.084;16.748;2023-04-29T07:33:49;99788.78;;;13.99;73.74
72096;BME280;59968;51.084;16.748;2023-04-29T07:36:18;99790.80;;;14.04;73.84
72096;BME280;59968;51.084;16.748;2023-04-29T07:38:48;99794.64;;;14.12;73.98
72096;BME280;59968;51.084;16.748;2023-04-29T07:41:17;99792.05;;;14.17;73.96
72096;BME280;59968;51.084;16.748;2023-04-29T07:43:45;99792.13;;;14.23;74.21
72096;BME280;59968;51.084;16.748;2023-04-29T07:46:14;99795.54;;;14.27;74.47
72096;BME280;59968;51.084;16.748;2023-04-29T07:48:47;99793.97;;;14.31;74.32
72096;BME280;59968;51.084;16.748;2023-04-29T07:51:19;99796.19;;;14.34;74.07
72096;BME280;59968;51.084;16.748;2023-04-29T07:53:47;99792.79;;;14.38;74.04
72096;BME280;59968;51.084;16.748;2023-04-29T07:56:17;99793.39;;;14.40;74.05
72096;BME280;59968;51.084;16.748;2023-04-29T07:58:47;99791.06;;;14.43;73.77
72096;BME280;59968;51.084;16.748;2023-04-29T08:01:16;99794.95;;;14.46;73.95
72096;BME280;59968;51.084;16.748;2023-04-29T08:03:46;99796.43;;;14.49;74.12
72096;BME280;59968;51.084;16.748;2023-04-29T08:06:17;99795.61;;;14.52;74.14
72096;BME280;59968;51.084;16.748;2023-04-29T08:08:48;99796.84;;;14.56;74.06
72096;BME280;59968;51.084;16.748;2023-04-29T08:11:19;99794.63;;;14.57;73.98
72096;BME280;59968;51.084;16.748;2023-04-29T08:13:48;99797.80;;;14.57;73.87
72096;BME280;59968;51.084;16.748;2023-04-29T08:16:17;99803.86;;;14.57;73.98
72096;BME280;59968;51.084;16.748;2023-04-29T08:18:46;99806.84;;;14.59;74.18
72096;BME280;59968;51.084;16.748;2023-04-29T08:21:15;99808.20;;;14.59;74.45
72096;BME280;59968;51.084;16.748;2023-04-29T08:23:44;99809.56;;;14.60;74.32
72096;BME280;59968;51.084;16.748;2023-04-29T08:26:13;99813.15;;;14.63;74.55
72096;BME280;59968;51.084;16.748;2023-04-29T08:28:42;99814.42;;;14.67;74.74
72096;BME280;59968;51.084;16.748;2023-04-29T08:31:20;99818.79;;;14.70;74.69
72096;BME280;59968;51.084;16.748;2023-04-29T08:33:49;99826.67;;;14.75;74.96
72096;BME280;59968;51.084;16.748;2023-04-29T08:36:17;99831.61;;;14.80;75.05
72096;BME280;59968;51.084;16.748;2023-04-29T08:38:46;99835.27;;;14.87;74.76
72096;BME280;59968;51.084;16.748;2023-04-29T08:41:17;99835.41;;;14.97;74.93
72096;BME280;59968;51.084;16.748;2023-04-29T08:43:46;99838.09;;;15.07;74.74
72096;BME280;59968;51.084;16.748;2023-04-29T08:46:15;99845.63;;;15.18;74.71
72096;BME280;59968;51.084;16.748;2023-04-29T08:48:45;99846.00;;;15.29;74.58
72096;BME280;59968;51.084;16.748;2023-04-29T08:51:14;99844.89;;;15.38;74.13
72096;BME280;59968;51.084;16.748;2023-04-29T08:53:43;99844.86;;;15.49;74.04
72096;BME280;59968;51.084;16.748;2023-04-29T08:56:15;99841.64;;;15.62;73.84
72096;BME280;59968;51.084;16.748;2023-04-29T08:58:56;99843.18;;;15.75;74.11
72096;BME280;59968;51.084;16.748;2023-04-29T09:01:27;99845.22;;;15.88;74.60
72096;BME280;59968;51.084;16.748;2023-04-29T09:07:27;99841.73;;;16.09;73.24
72096;BME280;59968;51.084;16.748;2023-04-29T09:09:56;99836.61;;;16.13;73.07
72096;BME280;59968;51.084;16.748;2023-04-29T09:12:25;99835.20;;;16.14;72.43
72096;BME280;59968;51.084;16.748;2023-04-29T09:14:55;99838.33;;;16.12;72.11
72096;BME280;59968;51.084;16.748;2023-04-29T09:17:46;99832.30;;;16.09;71.97
72096;BME280;59968;51.084;16.748;2023-04-29T09:22:51;99841.60;;;16.27;72.26
72096;BME280;59968;51.084;16.748;2023-04-29T09:25:21;99837.79;;;16.31;72.10
72096;BME280;59968;51.084;16.748;2023-04-29T09:27:50;99839.64;;;16.32;71.78
72096;BME280;59968;51.084;16.748;2023-04-29T09:30:19;99842.36;;;16.35;72.03
72096;BME280;59968;51.084;16.748;2023-04-29T09:33:05;99843.67;;;16.39;71.79
72096;BME280;59968;51.084;16.748;2023-04-29T09:35:34;99846.57;;;16.39;71.12
72096;BME280;59968;51.084;16.748;2023-04-29T09:38:14;99841.03;;;16.40;70.85
72096;BME280;59968;51.084;16.748;2023-04-29T09:40:43;99847.47;;;16.43;70.86
72096;BME280;59968;51.084;16.748;2023-04-29T09:43:25;99843.94;;;16.48;70.71
72096;BME280;59968;51.084;16.748;2023-04-29T09:45:54;99849.42;;;16.53;70.93
72096;BME280;59968;51.084;16.748;2023-04-29T09:48:29;99852.15;;;16.67;71.25
72096;BME280;59968;51.084;16.748;2023-04-29T09:51:00;99850.19;;;16.81;71.19
72096;BME280;59968;51.084;16.748;2023-04-29T09:53:30;99854.61;;;16.99;71.01
72096;BME280;59968;51.084;16.748;2023-04-29T09:56:01;99854.86;;;17.21;70.41
72096;BME280;59968;51.084;16.748;2023-04-29T09:58:34;99854.86;;;17.41;69.73
72096;BME280;59968;51.084;16.748;2023-04-29T10:01:06;99857.23;;;17.63;68.27
72096;BME280;59968;51.084;16.748;2023-04-29T10:03:36;99853.98;;;17.82;66.60
72096;BME280;59968;51.084;16.748;2023-04-29T10:06:06;99855.17;;;17.95;66.07
72096;BME280;59968;51.084;16.748;2023-04-29T10:08:35;99852.56;;;18.02;65.20
72096;BME280;59968;51.084;16.748;2023-04-29T10:11:04;99853.78;;;18.09;65.13
72096;BME280;59968;51.084;16.748;2023-04-29T10:13:34;99853.67;;;18.08;64.96
72096;BME280;59968;51.084;16.748;2023-04-29T10:18:36;99850.19;;;18.17;64.40
72096;BME280;59968;51.084;16.748;2023-04-29T10:21:10;99850.33;;;18.22;64.39
72096;BME280;59968;51.084;16.748;2023-04-29T10:23:42;99851.65;;;18.24;64.00
72096;BME280;59968;51.084;16.748;2023-04-29T10:26:12;99842.73;;;18.24;63.99
72096;BME280;59968;51.084;16.748;2023-04-29T10:28:43;99840.85;;;18.25;63.29
72096;BME280;59968;51.084;16.748;2023-04-29T10:31:13;99838.71;;;18.25;62.66
72096;BME280;59968;51.084;16.748;2023-04-29T10:33:45;99835.86;;;18.23;61.89
72096;BME280;59968;51.084;16.748;2023-04-29T10:36:15;99835.81;;;18.25;62.30
72096;BME280;59968;51.084;16.748;2023-04-29T10:38:50;99835.53;;;18.28;62.64
72096;BME280;59968;51.084;16.748;2023-04-29T10:41:26;99835.55;;;18.38;62.46
72096;BME280;59968;51.084;16.748;2023-04-29T10:43:58;99838.11;;;18.48;62.19
72096;BME280;59968;51.084;16.748;2023-04-29T10:46:27;99832.96;;;18.60;61.97
72096;BME280;59968;51.084;16.748;2023-04-29T10:49:03;99829.85;;;18.73;61.82
72096;BME280;59968;51.084;16.748;2023-04-29T10:51:38;99829.23;;;18.93;61.09
72096;BME280;59968;51.084;16.748;2023-04-29T10:54:15;99828.69;;;19.09;61.02
72096;BME280;59968;51.084;16.748;2023-04-29T10:56:48;99828.48;;;19.22;60.83
72096;BME280;59968;51.084;16.748;2023-04-29T11:02:09;99831.73;;;19.41;59.20
72096;BME280;59968;51.084;16.748;2023-04-29T11:05:07;99830.34;;;19.45;59.11
72096;BME280;59968;51.084;16.748;2023-04-29T11:07:37;99831.46;;;19.49;58.91
72096;BME280;59968;51.084;16.748;2023-04-29T11:10:06;99831.14;;;19.51;58.52
72096;BME280;59968;51.084;16.748;2023-04-29T11:12:34;99831.46;;;19.48;58.40
72096;BME280;59968;51.084;16.748;2023-04-29T11:15:05;99830.44;;;19.43;58.62
72096;BME280;59968;51.084;16.748;2023-04-29T11:17:38;99830.95;;;19.38;58.51
72096;BME280;59968;51.084;16.748;2023-04-29T11:20:12;99828.33;;;19.32;58.56
72096;BME280;59968;51.084;16.748;2023-04-29T11:22:41;99829.41;;;19.27;58.91
72096;BME280;59968;51.084;16.748;2023-04-29T11:25:18;99833.92;;;19.15;59.15
72096;BME280;59968;51.084;16.748;2023-04-29T11:27:46;99834.13;;;19.03;59.15
72096;BME280;59968;51.084;16.748;2023-04-29T11:30:17;99833.28;;;18.93;59.55
72096;BME280;59968;51.084;16.748;2023-04-29T11:32:47;99839.40;;;18.80;60.48
72096;BME280;59968;51.084;16.748;2023-04-29T11:35:17;99844.50;;;18.64;61.78
72096;BME280;59968;51.084;16.748;2023-04-29T11:37:49;99844.20;;;18.47;62.52
72096;BME280;59968;51.084;16.748;2023-04-29T11:40:17;99843.84;;;18.31;63.28
72096;BME280;59968;51.084;16.748;2023-04-29T11:42:47;99848.27;;;18.19;64.10
72096;BME280;59968;51.084;16.748;2023-04-29T11:45:17;99851.02;;;18.05;64.90
72096;BME280;59968;51.084;16.748;2023-04-29T11:47:47;99846.64;;;17.91;65.58
72096;BME280;59968;51.084;16.748;2023-04-29T11:50:17;99842.85;;;17.81;66.32
72096;BME280;59968;51.084;16.748;2023-04-29T11:52:48;99846.46;;;17.76;66.89
72096;BME280;59968;51.084;16.748;2023-04-29T11:55:18;99841.79;;;17.71;67.17
72096;BME280;59968;51.084;16.748;2023-04-29T11:57:48;99850.38;;;17.83;68.13
72096;BME280;59968;51.084;16.748;2023-04-29T12:00:19;99851.56;;;18.02;69.38
72096;BME280;59968;51.084;16.748;2023-04-29T12:02:49;99850.88;;;18.23;68.94
72096;BME280;59968;51.084;16.748;2023-04-29T12:05:18;99853.73;;;18.45;68.99
72096;BME280;59968;51.084;16.748;2023-04-29T12:07:49;99849.10;;;18.61;68.35
72096;BME280;59968;51.084;16.748;2023-04-29T12:10:19;99847.48;;;18.79;66.50
72096;BME280;59968;51.084;16.748;2023-04-29T12:12:49;99850.88;;;18.92;64.59
72096;BME280;59968;51.084;16.748;2023-04-29T12:15:20;99845.45;;;19.08;64.49
72096;BME280;59968;51.084;16.748;2023-04-29T12:17:49;99841.07;;;19.25;64.86
72096;BME280;59968;51.084;16.748;2023-04-29T12:20:20;99837.95;;;19.42;65.06
72096;BME280;59968;51.084;16.748;2023-04-29T12:22:50;99836.67;;;19.48;64.06
72096;BME280;59968;51.084;16.748;2023-04-29T12:25:24;99835.84;;;19.53;61.99
72096;BME280;59968;51.084;16.748;2023-04-29T12:27:59;99835.50;;;19.47;60.56
72096;BME280;59968;51.084;16.748;2023-04-29T12:30:28;99834.27;;;19.44;60.44
72096;BME280;59968;51.084;16.748;2023-04-29T12:32:57;99829.99;;;19.39;59.40
72096;BME280;59968;51.084;16.748;2023-04-29T12:35:27;99832.19;;;19.26;60.10
72096;BME280;59968;51.084;16.748;2023-04-29T12:37:57;99832.29;;;19.25;60.38
72096;BME280;59968;51.084;16.748;2023-04-29T12:40:27;99835.60;;;19.36;60.81
72096;BME280;59968;51.084;16.748;2023-04-29T12:43:05;99828.95;;;19.52;61.58
72096;BME280;59968;51.084;16.748;2023-04-29T12:45:35;99826.27;;;19.68;60.87
72096;BME280;59968;51.084;16.748;2023-04-29T12:48:05;99824.47;;;19.73;59.97
72096;BME280;59968;51.084;16.748;2023-04-29T12:50:48;99824.73;;;19.66;59.93
72096;BME280;59968;51.084;16.748;2023-04-29T12:53:17;99821.19;;;19.63;59.67
72096;BME280;59968;51.084;16.748;2023-04-29T12:55:47;99823.57;;;19.61;59.02
72096;BME280;59968;51.084;16.748;2023-04-29T12:58:16;99827.13;;;19.59;58.67
72096;BME280;59968;51.084;16.748;2023-04-29T13:00:45;99825.40;;;19.61;58.95
72096;BME280;59968;51.084;16.748;2023-04-29T13:03:14;99823.77;;;19.64;60.15
72096;BME280;59968;51.084;16.748;2023-04-29T13:05:46;99824.79;;;19.70;59.91
72096;BME280;59968;51.084;16.748;2023-04-29T13:08:18;99826.13;;;19.77;59.75
72096;BME280;59968;51.084;16.748;2023-04-29T13:10:47;99824.68;;;19.71;58.50
72096;BME280;59968;51.084;16.748;2023-04-29T13:13:17;99831.92;;;19.60;59.21
72096;BME280;59968;51.084;16.748;2023-04-29T13:15:46;99831.11;;;19.51;58.92
72096;BME280;59968;51.084;16.748;2023-04-29T13:18:15;99834.27;;;19.29;59.11
72096;BME280;59968;51.084;16.748;2023-04-29T13:20:44;99827.77;;;19.06;59.49
72096;BME280;59968;51.084;16.748;2023-04-29T13:23:15;99824.35;;;18.94;59.11
72096;BME280;59968;51.084;16.748;2023-04-29T13:25:44;99824.60;;;18.90;59.13
72096;BME280;59968;51.084;16.748;2023-04-29T13:28:13;99822.34;;;18.92;59.00
72096;BME280;59968;51.084;16.748;2023-04-29T13:30:42;99825.57;;;18.95;59.19
72096;BME280;59968;51.084;16.748;2023-04-29T13:33:11;99828.15;;;18.96;58.91
72096;BME280;59968;51.084;16.748;2023-04-29T13:35:40;99825.31;;;18.97;59.02
72096;BME280;59968;51.084;16.748;2023-04-29T13:38:09;99827.73;;;19.06;59.28